sensor_id;sensor_type;location;lat;lon;timestamp;temperature;humidity
15127;DHT22;7664;52.008;4.748;2022-08-18T00:01:12;20.20;99.90
15127;DHT22;7664;52.008;4.748;2022-08-18T00:03:42;20.20;99.90
15127;DHT22;7664;52.008;4.748;2022-08-18T00:06:23;20.20;99.90
15127;DHT22;7664;52.008;4.748;2022-08-18T00:08:56;20.20;99.90
15127;DHT22;7664;52.008;4.748;2022-08-18T00:11:26;20.20;99.90
15127;DHT22;7664;52.008;4.748;2022-08-18T00:14:13;20.20;99.90
15127;DHT22;7664;52.008;4.748;2022-08-18T00:16:50;20.20;99.90
15127;DHT22;7664;52.008;4.748;2022-08-18T00:19:18;20.20;99.90
15127;DHT22;7664;52.008;4.748;2022-08-18T00:22:07;20.20;99.90
15127;DHT22;7664;52.008;4.748;2022-08-18T00:24:43;20.00;99.90
15127;DHT22;7664;52.008;4.748;2022-08-18T00:27:15;20.00;99.90
15127;DHT22;7664;52.008;4.748;2022-08-18T00:29:50;20.00;99.90
15127;DHT22;7664;52.008;4.748;2022-08-18T00:32:20;20.00;99.90
15127;DHT22;7664;52.008;4.748;2022-08-18T00:34:49;20.00;99.90
15127;DHT22;7664;52.008;4.748;2022-08-18T00:37:20;20.00;99.90
15127;DHT22;7664;52.008;4.748;2022-08-18T00:39:51;20.00;99.90
15127;DHT22;7664;52.008;4.748;2022-08-18T00:42:24;20.00;99.90
15127;DHT22;7664;52.008;4.748;2022-08-18T00:44:59;20.00;99.90
15127;DHT22;7664;52.008;4.748;2022-08-18T00:47:28;19.90;99.90
15127;DHT22;7664;52.008;4.748;2022-08-18T00:50:11;19.80;99.90
15127;DHT22;7664;52.008;4.748;2022-08-18T00:52:42;19.90;99.90
15127;DHT22;7664;52.008;4.748;2022-08-18T00:55:14;19.80;99.90
15127;DHT22;7664;52.008;4.748;2022-08-18T00:57:46;19.80;99.90
15127;DHT22;7664;52.008;4.748;2022-08-18T01:00:16;19.80;99.90
15127;DHT22;7664;52.008;4.748;2022-08-18T01:02:53;19.70;99.90
15127;DHT22;7664;52.008;4.748;2022-08-18T01:05:27;19.70;99.90
15127;DHT22;7664;52.008;4.748;2022-08-18T01:07:56;19.70;99.90
15127;DHT22;7664;52.008;4.748;2022-08-18T01:10:26;19.70;99.90
15127;DHT22;7664;52.008;4.748;2022-08-18T01:12:56;19.70;99.90
15127;DHT22;7664;52.008;4.748;2022-08-18T01:15:26;19.70;99.90
15127;DHT22;7664;52.008;4.748;2022-08-18T01:17:57;19.70;99.90
15127;DHT22;7664;52.008;4.748;2022-08-18T01:20:48;19.60;99.90
15127;DHT22;7664;52.008;4.748;2022-08-18T01:23:44;19.70;99.90
15127;DHT22;7664;52.008;4.748;2022-08-18T01:26:17;19.70;99.90
15127;DHT22;7664;52.008;4.748;2022-08-18T01:28:46;19.70;99.90
15127;DHT22;7664;52.008;4.748;2022-08-18T01:31:30;19.60;99.90
15127;DHT22;7664;52.008;4.748;2022-08-18T01:34:00;19.60;99.90
15127;DHT22;7664;52.008;4.748;2022-08-18T01:36:30;19.60;99.90
15127;DHT22;7664;52.008;4.748;2022-08-18T01:39:09;19.60;99.90
15127;DHT22;7664;52.008;4.748;2022-08-18T01:41:39;19.60;99.90
15127;DHT22;7664;52.008;4.748;2022-08-18T01:44:10;19.60;99.90
15127;DHT22;7664;52.008;4.748;2022-08-18T01:46:40;19.60;99.90
15127;DHT22;7664;52.008;4.748;2022-08-18T01:49:10;19.60;99.90
15127;DHT22;7664;52.008;4.748;2022-08-18T01:51:39;19.60;99.90
15127;DHT22;7664;52.008;4.748;2022-08-18T01:54:13;19.60;99.90
15127;DHT22;7664;52.008;4.748;2022-08-18T01:56:42;19.60;99.90
15127;DHT22;7664;52.008;4.748;2022-08-18T01:59:14;19.50;99.90
15127;DHT22;7664;52.008;4.748;2022-08-18T02:01:44;19.50;99.90
15127;DHT22;7664;52.008;4.748;2022-08-18T02:04:21;19.50;99.90
15127;DHT22;7664;52.008;4.748;2022-08-18T02:07:11;19.50;99.90
15127;DHT22;7664;52.008;4.748;2022-08-18T02:09:45;19.40;99.90
15127;DHT22;7664;52.008;4.748;2022-08-18T02:12:17;19.40;99.90
15127;DHT22;7664;52.008;4.748;2022-08-18T02:14:46;19.40;99.90
15127;DHT22;7664;52.008;4.748;2022-08-18T02:17:17;19.40;99.90
15127;DHT22;7664;52.008;4.748;2022-08-18T02:19:46;19.40;99.90
15127;DHT22;7664;52.008;4.748;2022-08-18T02:22:16;19.40;99.90
15127;DHT22;7664;52.008;4.748;2022-08-18T02:24:49;19.40;99.90
15127;DHT22;7664;52.008;4.748;2022-08-18T02:27:18;19.30;99.90
15127;DHT22;7664;52.008;4.748;2022-08-18T02:29:46;19.30;99.90
15127;DHT22;7664;52.008;4.748;2022-08-18T02:32:15;19.30;99.90
15127;DHT22;7664;52.008;4.748;2022-08-18T02:34:44;19.30;99.90
15127;DHT22;7664;52.008;4.748;2022-08-18T02:37:12;19.30;99.90
15127;DHT22;7664;52.008;4.748;2022-08-18T02:39:41;19.20;99.90
15127;DHT22;7664;52.008;4.748;2022-08-18T02:42:11;19.20;99.90
15127;DHT22;7664;52.008;4.748;2022-08-18T02:44:42;19.30;99.90
15127;DHT22;7664;52.008;4.748;2022-08-18T02:47:10;19.30;99.90
15127;DHT22;7664;52.008;4.748;2022-08-18T02:49:38;19.30;99.90
15127;DHT22;7664;52.008;4.748;2022-08-18T02:52:06;19.30;99.90
15127;DHT22;7664;52.008;4.748;2022-08-18T02:54:34;19.40;99.90
15127;DHT22;7664;52.008;4.748;2022-08-18T02:57:05;19.20;99.90
15127;DHT22;7664;52.008;4.748;2022-08-18T02:59:36;19.20;99.90
15127;DHT22;7664;52.008;4.748;2022-08-18T03:02:06;19.20;99.90
15127;DHT22;7664;52.008;4.748;2022-08-18T03:04:34;19.20;99.90
15127;DHT22;7664;52.008;4.748;2022-08-18T03:07:05;19.20;99.90
15127;DHT22;7664;52.008;4.748;2022-08-18T03:09:34;19.20;99.90
15127;DHT22;7664;52.008;4.748;2022-08-18T03:12:06;19.20;99.90
15127;DHT22;7664;52.008;4.748;2022-08-18T03:14:37;19.20;99.90
15127;DHT22;7664;52.008;4.748;2022-08-18T03:17:07;19.20;99.90
15127;DHT22;7664;52.008;4.748;2022-08-18T03:19:36;19.20;99.90
15127;DHT22;7664;52.008;4.748;2022-08-18T03:22:07;19.20;99.90
15127;DHT22;7664;52.008;4.748;2022-08-18T03:24:56;19.20;99.90
15127;DHT22;7664;52.008;4.748;2022-08-18T03:27:25;19.20;99.90
15127;DHT22;7664;52.008;4.748;2022-08-18T03:29:55;19.20;99.90
15127;DHT22;7664;52.008;4.748;2022-08-18T03:32:24;19.20;99.90
15127;DHT22;7664;52.008;4.748;2022-08-18T03:34:52;19.30;99.90
15127;DHT22;7664;52.008;4.748;2022-08-18T03:37:23;19.20;99.90
15127;DHT22;7664;52.008;4.748;2022-08-18T03:39:50;19.20;99.90
15127;DHT22;7664;52.008;4.748;2022-08-18T03:42:19;19.20;99.90
15127;DHT22;7664;52.008;4.748;2022-08-18T03:44:47;19.20;99.90
15127;DHT22;7664;52.008;4.748;2022-08-18T03:47:16;19.20;99.90
15127;DHT22;7664;52.008;4.748;2022-08-18T03:49:45;19.20;99.90
15127;DHT22;7664;52.008;4.748;2022-08-18T03:52:15;19.20;99.90
15127;DHT22;7664;52.008;4.748;2022-08-18T03:54:43;19.20;99.90
15127;DHT22;7664;52.008;4.748;2022-08-18T03:57:11;19.20;99.90
15127;DHT22;7664;52.008;4.748;2022-08-18T03:59:40;19.20;99.90
15127;DHT22;7664;52.008;4.748;2022-08-18T04:02:11;19.20;99.90
15127;DHT22;7664;52.008;4.748;2022-08-18T04:04:43;19.10;99.90
15127;DHT22;7664;52.008;4.748;2022-08-18T04:07:17;19.10;99.90
15127;DHT22;7664;52.008;4.748;2022-08-18T04:09:45;19.20;99.90
15127;DHT22;7664;52.008;4.748;2022-08-18T04:12:15;19.20;99.90
15127;DHT22;7664;52.008;4.748;2022-08-18T04:14:45;19.20;99.90
15127;DHT22;7664;52.008;4.748;2022-08-18T04:17:15;19.20;99.90
15127;DHT22;7664;52.008;4.748;2022-08-18T04:19:44;19.10;99.90
15127;DHT22;7664;52.008;4.748;2022-08-18T04:22:12;19.20;99.90
15127;DHT22;7664;52.008;4.748;2022-08-18T04:24:45;19.20;99.90
15127;DHT22;7664;52.008;4.748;2022-08-18T04:27:15;19.10;99.90
15127;DHT22;7664;52.008;4.748;2022-08-18T04:29:44;19.20;99.90
15127;DHT22;7664;52.008;4.748;2022-08-18T04:32:12;19.10;99.90
15127;DHT22;7664;52.008;4.748;2022-08-18T04:34:41;19.10;99.90
15127;DHT22;7664;52.008;4.748;2022-08-18T04:37:12;19.20;99.90
15127;DHT22;7664;52.008;4.748;2022-08-18T04:39:41;19.20;99.90
15127;DHT22;7664;52.008;4.748;2022-08-18T04:42:09;19.10;99.90
15127;DHT22;7664;52.008;4.748;2022-08-18T04:44:40;19.10;99.90
15127;DHT22;7664;52.008;4.748;2022-08-18T04:47:08;19.10;99.90
15127;DHT22;7664;52.008;4.748;2022-08-18T04:49:36;19.20;99.90
15127;DHT22;7664;52.008;4.748;2022-08-18T04:52:05;19.10;99.90
15127;DHT22;7664;52.008;4.748;2022-08-18T04:55:09;19.20;99.90
15127;DHT22;7664;52.008;4.748;2022-08-18T04:57:37;19.10;99.90
15127;DHT22;7664;52.008;4.748;2022-08-18T05:00:08;19.10;99.90
15127;DHT22;7664;52.008;4.748;2022-08-18T05:02:38;19.10;99.90
15127;DHT22;7664;52.008;4.748;2022-08-18T05:05:07;19.20;99.90
15127;DHT22;7664;52.008;4.748;2022-08-18T05:07:36;19.20;99.90
15127;DHT22;7664;52.008;4.748;2022-08-18T05:10:04;19.20;99.90
15127;DHT22;7664;52.008;4.748;2022-08-18T05:12:33;19.20;99.90
15127;DHT22;7664;52.008;4.748;2022-08-18T05:15:02;19.20;99.90
15127;DHT22;7664;52.008;4.748;2022-08-18T05:17:35;19.20;99.90
15127;DHT22;7664;52.008;4.748;2022-08-18T05:20:08;19.20;99.90
15127;DHT22;7664;52.008;4.748;2022-08-18T05:22:37;19.30;99.90
15127;DHT22;7664;52.008;4.748;2022-08-18T05:25:07;19.30;99.90
15127;DHT22;7664;52.008;4.748;2022-08-18T05:27:39;19.30;99.90
15127;DHT22;7664;52.008;4.748;2022-08-18T05:30:10;19.30;99.90
15127;DHT22;7664;52.008;4.748;2022-08-18T05:32:42;19.30;99.90
15127;DHT22;7664;52.008;4.748;2022-08-18T05:35:20;19.40;99.90
15127;DHT22;7664;52.008;4.748;2022-08-18T05:38:01;19.40;99.90
15127;DHT22;7664;52.008;4.748;2022-08-18T05:40:33;19.40;99.90
15127;DHT22;7664;52.008;4.748;2022-08-18T05:43:04;19.40;99.90
15127;DHT22;7664;52.008;4.748;2022-08-18T05:45:34;19.40;99.90
15127;DHT22;7664;52.008;4.748;2022-08-18T05:48:03;19.40;99.90
15127;DHT22;7664;52.008;4.748;2022-08-18T05:50:33;19.60;99.90
15127;DHT22;7664;52.008;4.748;2022-08-18T05:53:06;20.70;99.90
15127;DHT22;7664;52.008;4.748;2022-08-18T05:55:46;20.90;99.90
15127;DHT22;7664;52.008;4.748;2022-08-18T05:58:38;21.50;99.90
15127;DHT22;7664;52.008;4.748;2022-08-18T06:01:14;22.20;99.90
15127;DHT22;7664;52.008;4.748;2022-08-18T06:03:49;23.00;99.90
15127;DHT22;7664;52.008;4.748;2022-08-18T06:06:21;24.00;99.90
15127;DHT22;7664;52.008;4.748;2022-08-18T06:08:56;24.80;99.90
15127;DHT22;7664;52.008;4.748;2022-08-18T06:11:25;25.60;99.90
15127;DHT22;7664;52.008;4.748;2022-08-18T06:13:57;26.50;99.90
15127;DHT22;7664;52.008;4.748;2022-08-18T06:16:40;27.10;99.90
15127;DHT22;7664;52.008;4.748;2022-08-18T06:19:27;27.90;99.90
15127;DHT22;7664;52.008;4.748;2022-08-18T06:22:04;28.40;99.90
15127;DHT22;7664;52.008;4.748;2022-08-18T06:24:38;29.00;99.90
15127;DHT22;7664;52.008;4.748;2022-08-18T06:27:13;29.40;99.90
15127;DHT22;7664;52.008;4.748;2022-08-18T06:29:53;29.70;99.90
15127;DHT22;7664;52.008;4.748;2022-08-18T06:32:38;30.00;99.90
15127;DHT22;7664;52.008;4.748;2022-08-18T06:35:15;30.30;99.90
15127;DHT22;7664;52.008;4.748;2022-08-18T06:37:52;30.50;99.90
15127;DHT22;7664;52.008;4.748;2022-08-18T06:40:39;31.00;99.90
15127;DHT22;7664;52.008;4.748;2022-08-18T06:43:12;30.70;99.90
15127;DHT22;7664;52.008;4.748;2022-08-18T06:45:45;30.50;99.90
15127;DHT22;7664;52.008;4.748;2022-08-18T06:48:24;30.80;99.90
15127;DHT22;7664;52.008;4.748;2022-08-18T06:50:57;30.90;99.90
15127;DHT22;7664;52.008;4.748;2022-08-18T06:53:51;30.10;99.90
15127;DHT22;7664;52.008;4.748;2022-08-18T06:56:23;29.60;99.90
15127;DHT22;7664;52.008;4.748;2022-08-18T06:58:53;28.90;99.90
15127;DHT22;7664;52.008;4.748;2022-08-18T07:01:23;29.10;99.90
15127;DHT22;7664;52.008;4.748;2022-08-18T07:03:54;29.00;99.90
15127;DHT22;7664;52.008;4.748;2022-08-18T07:06:28;28.90;99.90
15127;DHT22;7664;52.008;4.748;2022-08-18T07:09:19;28.80;99.90
15127;DHT22;7664;52.008;4.748;2022-08-18T07:12:03;28.40;99.90
15127;DHT22;7664;52.008;4.748;2022-08-18T07:14:42;28.20;99.90
15127;DHT22;7664;52.008;4.748;2022-08-18T07:17:17;28.10;99.90
15127;DHT22;7664;52.008;4.748;2022-08-18T07:19:59;28.20;99.90
15127;DHT22;7664;52.008;4.748;2022-08-18T07:22:28;27.90;99.90
15127;DHT22;7664;52.008;4.748;2022-08-18T07:25:06;27.70;99.90
15127;DHT22;7664;52.008;4.748;2022-08-18T07:27:46;27.70;99.90
15127;DHT22;7664;52.008;4.748;2022-08-18T07:30:28;27.90;99.90
15127;DHT22;7664;52.008;4.748;2022-08-18T07:33:04;28.10;99.90
15127;DHT22;7664;52.008;4.748;2022-08-18T07:35:37;27.70;99.90
15127;DHT22;7664;52.008;4.748;2022-08-18T07:38:13;27.80;99.90
15127;DHT22;7664;52.008;4.748;2022-08-18T07:41:08;28.00;99.90
15127;DHT22;7664;52.008;4.748;2022-08-18T07:43:44;28.60;99.90
15127;DHT22;7664;52.008;4.748;2022-08-18T07:46:18;28.60;99.90
15127;DHT22;7664;52.008;4.748;2022-08-18T07:48:50;28.40;99.90
15127;DHT22;7664;52.008;4.748;2022-08-18T07:51:23;28.40;99.90
15127;DHT22;7664;52.008;4.748;2022-08-18T07:54:09;28.70;99.90
15127;DHT22;7664;52.008;4.748;2022-08-18T07:57:05;29.10;99.90
15127;DHT22;7664;52.008;4.748;2022-08-18T07:59:52;29.30;99.90
15127;DHT22;7664;52.008;4.748;2022-08-18T08:02:35;29.50;99.90
15127;DHT22;7664;52.008;4.748;2022-08-18T08:05:14;29.30;99.90
15127;DHT22;7664;52.008;4.748;2022-08-18T08:07:54;29.80;99.90
15127;DHT22;7664;52.008;4.748;2022-08-18T08:10:32;29.30;99.90
15127;DHT22;7664;52.008;4.748;2022-08-18T08:13:11;28.60;99.90
15127;DHT22;7664;52.008;4.748;2022-08-18T08:16:16;28.20;99.90
15127;DHT22;7664;52.008;4.748;2022-08-18T08:18:54;27.90;99.90
15127;DHT22;7664;52.008;4.748;2022-08-18T08:21:31;27.70;99.90
15127;DHT22;7664;52.008;4.748;2022-08-18T08:24:09;27.50;99.90
15127;DHT22;7664;52.008;4.748;2022-08-18T08:26:52;27.60;99.90
15127;DHT22;7664;52.008;4.748;2022-08-18T08:29:32;27.70;99.90
15127;DHT22;7664;52.008;4.748;2022-08-18T08:32:11;27.70;99.90
15127;DHT22;7664;52.008;4.748;2022-08-18T08:34:45;27.30;99.90
15127;DHT22;7664;52.008;4.748;2022-08-18T08:37:20;26.90;99.90
15127;DHT22;7664;52.008;4.748;2022-08-18T08:39:55;26.80;99.90
15127;DHT22;7664;52.008;4.748;2022-08-18T08:42:36;26.80;99.90
15127;DHT22;7664;52.008;4.748;2022-08-18T08:45:17;26.90;99.90
15127;DHT22;7664;52.008;4.748;2022-08-18T08:47:56;26.90;99.90
15127;DHT22;7664;52.008;4.748;2022-08-18T08:50:42;27.00;99.90
15127;DHT22;7664;52.008;4.748;2022-08-18T08:53:22;26.80;99.90
15127;DHT22;7664;52.008;4.748;2022-08-18T08:55:55;26.50;99.90
15127;DHT22;7664;52.008;4.748;2022-08-18T08:58:32;26.10;99.90
15127;DHT22;7664;52.008;4.748;2022-08-18T09:01:03;25.80;99.90
15127;DHT22;7664;52.008;4.748;2022-08-18T09:03:39;25.60;99.90
15127;DHT22;7664;52.008;4.748;2022-08-18T09:06:22;25.30;99.90
15127;DHT22;7664;52.008;4.748;2022-08-18T09:09:06;25.20;99.90
15127;DHT22;7664;52.008;4.748;2022-08-18T09:12:11;25.10;99.90
15127;DHT22;7664;52.008;4.748;2022-08-18T09:15:01;24.90;99.90
15127;DHT22;7664;52.008;4.748;2022-08-18T09:17:57;25.00;99.90
15127;DHT22;7664;52.008;4.748;2022-08-18T09:20:48;25.30;99.90
15127;DHT22;7664;52.008;4.748;2022-08-18T09:23:22;25.20;99.90
15127;DHT22;7664;52.008;4.748;2022-08-18T09:25:55;25.20;99.90
15127;DHT22;7664;52.008;4.748;2022-08-18T09:28:51;25.10;99.90
15127;DHT22;7664;52.008;4.748;2022-08-18T09:31:26;24.80;99.90
15127;DHT22;7664;52.008;4.748;2022-08-18T09:34:18;24.70;99.90
15127;DHT22;7664;52.008;4.748;2022-08-18T09:37:02;24.90;99.90
15127;DHT22;7664;52.008;4.748;2022-08-18T09:39:39;24.80;99.90
15127;DHT22;7664;52.008;4.748;2022-08-18T09:42:45;24.70;99.90
15127;DHT22;7664;52.008;4.748;2022-08-18T09:45:51;24.80;99.90
15127;DHT22;7664;52.008;4.748;2022-08-18T09:48:27;25.00;99.90
15127;DHT22;7664;52.008;4.748;2022-08-18T09:51:16;25.30;99.90
15127;DHT22;7664;52.008;4.748;2022-08-18T09:54:04;25.50;99.90
15127;DHT22;7664;52.008;4.748;2022-08-18T09:57:04;25.60;99.90
15127;DHT22;7664;52.008;4.748;2022-08-18T09:59:56;25.30;99.90
15127;DHT22;7664;52.008;4.748;2022-08-18T10:05:41;25.40;99.90
15127;DHT22;7664;52.008;4.748;2022-08-18T10:12:17;25.50;99.90
15127;DHT22;7664;52.008;4.748;2022-08-18T10:15:14;25.50;99.90
15127;DHT22;7664;52.008;4.748;2022-08-18T10:21:10;25.10;99.90
15127;DHT22;7664;52.008;4.748;2022-08-18T10:23:52;25.00;99.90
15127;DHT22;7664;52.008;4.748;2022-08-18T10:27:06;24.90;99.90
15127;DHT22;7664;52.008;4.748;2022-08-18T10:29:50;25.00;99.90
15127;DHT22;7664;52.008;4.748;2022-08-18T10:32:45;24.70;99.90
15127;DHT22;7664;52.008;4.748;2022-08-18T10:38:45;24.80;99.90
15127;DHT22;7664;52.008;4.748;2022-08-18T10:41:23;24.70;99.90
15127;DHT22;7664;52.008;4.748;2022-08-18T10:43:57;24.80;99.90
15127;DHT22;7664;52.008;4.748;2022-08-18T10:46:32;25.00;99.90
15127;DHT22;7664;52.008;4.748;2022-08-18T10:49:26;24.90;99.90
15127;DHT22;7664;52.008;4.748;2022-08-18T10:52:25;25.10;99.90
15127;DHT22;7664;52.008;4.748;2022-08-18T10:55:19;25.30;99.90
15127;DHT22;7664;52.008;4.748;2022-08-18T10:58:19;25.20;99.90
15127;DHT22;7664;52.008;4.748;2022-08-18T11:01:05;25.10;99.90
15127;DHT22;7664;52.008;4.748;2022-08-18T11:04:01;25.20;99.90
15127;DHT22;7664;52.008;4.748;2022-08-18T11:06:47;25.30;99.90
15127;DHT22;7664;52.008;4.748;2022-08-18T11:09:22;25.40;99.90
15127;DHT22;7664;52.008;4.748;2022-08-18T11:11:54;25.50;99.90
15127;DHT22;7664;52.008;4.748;2022-08-18T11:14:41;25.50;99.90
15127;DHT22;7664;52.008;4.748;2022-08-18T11:17:24;25.50;99.90
15127;DHT22;7664;52.008;4.748;2022-08-18T11:19:59;25.40;99.90
15127;DHT22;7664;52.008;4.748;2022-08-18T11:22:34;25.40;99.90
15127;DHT22;7664;52.008;4.748;2022-08-18T11:25:18;25.40;99.90
15127;DHT22;7664;52.008;4.748;2022-08-18T11:27:48;25.50;99.90
15127;DHT22;7664;52.008;4.748;2022-08-18T11:30:19;25.50;99.90
15127;DHT22;7664;52.008;4.748;2022-08-18T11:32:57;25.50;99.90
15127;DHT22;7664;52.008;4.748;2022-08-18T11:35:31;25.60;99.90
15127;DHT22;7664;52.008;4.748;2022-08-18T11:38:04;25.60;99.90
15127;DHT22;7664;52.008;4.748;2022-08-18T11:40:40;25.70;99.90
15127;DHT22;7664;52.008;4.748;2022-08-18T11:43:31;25.70;99.90
15127;DHT22;7664;52.008;4.748;2022-08-18T11:46:26;25.90;99.90
15127;DHT22;7664;52.008;4.748;2022-08-18T11:48:57;26.00;99.90
15127;DHT22;7664;52.008;4.748;2022-08-18T11:51:28;26.10;99.90
15127;DHT22;7664;52.008;4.748;2022-08-18T11:54:19;26.00;99.90
15127;DHT22;7664;52.008;4.748;2022-08-18T11:56:50;25.90;99.90
15127;DHT22;7664;52.008;4.748;2022-08-18T11:59:31;25.80;99.90
15127;DHT22;7664;52.008;4.748;2022-08-18T12:02:23;25.70;99.90
15127;DHT22;7664;52.008;4.748;2022-08-18T12:04:53;25.70;99.90
15127;DHT22;7664;52.008;4.748;2022-08-18T12:07:35;25.80;99.90
15127;DHT22;7664;52.008;4.748;2022-08-18T12:10:17;25.70;99.90
15127;DHT22;7664;52.008;4.748;2022-08-18T12:12:53;25.80;99.90
15127;DHT22;7664;52.008;4.748;2022-08-18T12:15:28;25.80;99.90
15127;DHT22;7664;52.008;4.748;2022-08-18T12:18:12;25.80;99.90
15127;DHT22;7664;52.008;4.748;2022-08-18T12:20:56;25.80;99.90
15127;DHT22;7664;52.008;4.748;2022-08-18T12:23:29;25.70;99.90
15127;DHT22;7664;52.008;4.748;2022-08-18T12:26:17;25.70;99.90
15127;DHT22;7664;52.008;4.748;2022-08-18T12:29:04;25.70;99.90
15127;DHT22;7664;52.008;4.748;2022-08-18T12:31:37;25.60;99.90
15127;DHT22;7664;52.008;4.748;2022-08-18T12:34:25;25.80;99.90
15127;DHT22;7664;52.008;4.748;2022-08-18T12:36:58;25.70;99.90
15127;DHT22;7664;52.008;4.748;2022-08-18T12:39:28;25.70;99.90
15127;DHT22;7664;52.008;4.748;2022-08-18T12:41:59;25.70;99.90
15127;DHT22;7664;52.008;4.748;2022-08-18T12:44:28;25.60;99.90
15127;DHT22;7664;52.008;4.748;2022-08-18T12:47:00;25.60;99.90
15127;DHT22;7664;52.008;4.748;2022-08-18T12:49:32;25.50;99.90
15127;DHT22;7664;52.008;4.748;2022-08-18T12:52:06;25.60;99.90
15127;DHT22;7664;52.008;4.748;2022-08-18T12:54:40;25.50;99.90
15127;DHT22;7664;52.008;4.748;2022-08-18T12:57:26;25.60;99.90
15127;DHT22;7664;52.008;4.748;2022-08-18T13:00:15;25.70;99.90
15127;DHT22;7664;52.008;4.748;2022-08-18T13:02:50;25.70;99.90
15127;DHT22;7664;52.008;4.748;2022-08-18T13:05:19;25.70;99.90
15127;DHT22;7664;52.008;4.748;2022-08-18T13:07:53;25.80;99.90
15127;DHT22;7664;52.008;4.748;2022-08-18T13:10:23;25.90;99.90
15127;DHT22;7664;52.008;4.748;2022-08-18T13:13:14;26.00;99.90
15127;DHT22;7664;52.008;4.748;2022-08-18T13:15:43;25.70;99.90
15127;DHT22;7664;52.008;4.748;2022-08-18T13:18:27;25.70;99.90
15127;DHT22;7664;52.008;4.748;2022-08-18T13:20:55;25.80;99.90
15127;DHT22;7664;52.008;4.748;2022-08-18T13:23:24;25.90;99.90
15127;DHT22;7664;52.008;4.748;2022-08-18T13:25:55;25.90;99.90
15127;DHT22;7664;52.008;4.748;2022-08-18T13:28:30;26.00;99.90
15127;DHT22;7664;52.008;4.748;2022-08-18T13:31:20;26.00;99.90
15127;DHT22;7664;52.008;4.748;2022-08-18T13:33:52;26.10;99.90
15127;DHT22;7664;52.008;4.748;2022-08-18T13:36:27;26.20;99.90
15127;DHT22;7664;52.008;4.748;2022-08-18T13:39:12;26.20;99.90
15127;DHT22;7664;52.008;4.748;2022-08-18T13:41:43;26.50;99.90
15127;DHT22;7664;52.008;4.748;2022-08-18T13:44:15;26.60;99.90
15127;DHT22;7664;52.008;4.748;2022-08-18T13:46:48;26.50;99.90
15127;DHT22;7664;52.008;4.748;2022-08-18T13:49:19;26.60;99.90
15127;DHT22;7664;52.008;4.748;2022-08-18T13:51:55;26.40;99.90
15127;DHT22;7664;52.008;4.748;2022-08-18T13:54:29;26.20;99.90
15127;DHT22;7664;52.008;4.748;2022-08-18T13:57:03;26.10;99.90
15127;DHT22;7664;52.008;4.748;2022-08-18T13:59:34;26.10;99.90
15127;DHT22;7664;52.008;4.748;2022-08-18T14:02:12;26.10;99.90
15127;DHT22;7664;52.008;4.748;2022-08-18T14:04:44;26.00;99.90
15127;DHT22;7664;52.008;4.748;2022-08-18T14:07:12;26.00;99.90
15127;DHT22;7664;52.008;4.748;2022-08-18T14:09:50;26.00;99.90
15127;DHT22;7664;52.008;4.748;2022-08-18T14:12:22;26.00;99.90
15127;DHT22;7664;52.008;4.748;2022-08-18T14:15:05;26.00;99.90
15127;DHT22;7664;52.008;4.748;2022-08-18T14:17:42;26.10;99.90
15127;DHT22;7664;52.008;4.748;2022-08-18T14:20:10;26.10;99.90
15127;DHT22;7664;52.008;4.748;2022-08-18T14:23:00;26.00;99.90
15127;DHT22;7664;52.008;4.748;2022-08-18T14:25:51;26.10;99.90
15127;DHT22;7664;52.008;4.748;2022-08-18T14:28:36;26.10;99.90
15127;DHT22;7664;52.008;4.748;2022-08-18T14:31:16;26.10;99.90
15127;DHT22;7664;52.008;4.748;2022-08-18T14:33:52;25.90;99.90
15127;DHT22;7664;52.008;4.748;2022-08-18T14:36:29;26.00;99.90
15127;DHT22;7664;52.008;4.748;2022-08-18T14:39:00;26.10;99.90
15127;DHT22;7664;52.008;4.748;2022-08-18T14:41:40;26.10;99.90
15127;DHT22;7664;52.008;4.748;2022-08-18T14:44:20;26.20;99.90
15127;DHT22;7664;52.008;4.748;2022-08-18T14:47:01;26.30;99.90
15127;DHT22;7664;52.008;4.748;2022-08-18T14:49:30;26.40;99.90
15127;DHT22;7664;52.008;4.748;2022-08-18T14:52:09;26.30;99.90
15127;DHT22;7664;52.008;4.748;2022-08-18T14:54:40;26.40;99.90
15127;DHT22;7664;52.008;4.748;2022-08-18T14:57:19;26.20;99.90
15127;DHT22;7664;52.008;4.748;2022-08-18T14:59:55;26.10;99.90
15127;DHT22;7664;52.008;4.748;2022-08-18T15:02:24;26.00;99.90
15127;DHT22;7664;52.008;4.748;2022-08-18T15:04:52;26.00;99.90
15127;DHT22;7664;52.008;4.748;2022-08-18T15:07:23;26.00;99.90
15127;DHT22;7664;52.008;4.748;2022-08-18T15:09:51;26.10;99.90
15127;DHT22;7664;52.008;4.748;2022-08-18T15:12:40;25.80;99.90
15127;DHT22;7664;52.008;4.748;2022-08-18T15:15:11;25.70;99.90
15127;DHT22;7664;52.008;4.748;2022-08-18T15:17:45;25.60;99.90
15127;DHT22;7664;52.008;4.748;2022-08-18T15:20:20;25.60;99.90
15127;DHT22;7664;52.008;4.748;2022-08-18T15:22:58;25.50;99.90
15127;DHT22;7664;52.008;4.748;2022-08-18T15:25:54;25.60;99.90
15127;DHT22;7664;52.008;4.748;2022-08-18T15:28:29;25.60;99.90
15127;DHT22;7664;52.008;4.748;2022-08-18T15:30:59;25.50;99.90
15127;DHT22;7664;52.008;4.748;2022-08-18T15:33:44;25.30;99.90
15127;DHT22;7664;52.008;4.748;2022-08-18T15:36:19;25.40;99.90
15127;DHT22;7664;52.008;4.748;2022-08-18T15:38:58;25.20;99.90
15127;DHT22;7664;52.008;4.748;2022-08-18T15:41:36;25.10;99.90
15127;DHT22;7664;52.008;4.748;2022-08-18T15:44:11;25.10;99.90
15127;DHT22;7664;52.008;4.748;2022-08-18T15:46:42;25.00;99.90
15127;DHT22;7664;52.008;4.748;2022-08-18T15:49:20;24.90;99.90
15127;DHT22;7664;52.008;4.748;2022-08-18T15:51:50;25.00;99.90
15127;DHT22;7664;52.008;4.748;2022-08-18T15:54:21;24.90;99.90
15127;DHT22;7664;52.008;4.748;2022-08-18T15:56:51;24.90;99.90
15127;DHT22;7664;52.008;4.748;2022-08-18T15:59:24;24.90;99.90
15127;DHT22;7664;52.008;4.748;2022-08-18T16:02:06;24.90;99.90
15127;DHT22;7664;52.008;4.748;2022-08-18T16:04:41;25.00;99.90
15127;DHT22;7664;52.008;4.748;2022-08-18T16:07:11;25.00;99.90
15127;DHT22;7664;52.008;4.748;2022-08-18T16:09:52;25.00;99.90
15127;DHT22;7664;52.008;4.748;2022-08-18T16:12:21;25.20;99.90
15127;DHT22;7664;52.008;4.748;2022-08-18T16:14:49;25.20;99.90
15127;DHT22;7664;52.008;4.748;2022-08-18T16:17:20;25.20;99.90
15127;DHT22;7664;52.008;4.748;2022-08-18T16:19:58;25.20;99.90
15127;DHT22;7664;52.008;4.748;2022-08-18T16:22:27;25.30;99.90
15127;DHT22;7664;52.008;4.748;2022-08-18T16:24:56;25.30;99.90
15127;DHT22;7664;52.008;4.748;2022-08-18T16:27:25;25.20;99.90
15127;DHT22;7664;52.008;4.748;2022-08-18T16:29:56;25.20;99.90
15127;DHT22;7664;52.008;4.748;2022-08-18T16:32:24;25.20;99.90
15127;DHT22;7664;52.008;4.748;2022-08-18T16:34:53;25.10;99.90
15127;DHT22;7664;52.008;4.748;2022-08-18T16:37:23;25.10;99.90
15127;DHT22;7664;52.008;4.748;2022-08-18T16:39:51;25.10;99.90
15127;DHT22;7664;52.008;4.748;2022-08-18T16:42:19;25.10;99.90
15127;DHT22;7664;52.008;4.748;2022-08-18T16:44:51;25.00;99.90
15127;DHT22;7664;52.008;4.748;2022-08-18T16:47:19;24.80;99.90
15127;DHT22;7664;52.008;4.748;2022-08-18T16:49:47;24.80;99.90
15127;DHT22;7664;52.008;4.748;2022-08-18T16:52:20;25.00;99.90
15127;DHT22;7664;52.008;4.748;2022-08-18T16:54:52;24.90;99.90